sensor_id;sensor_type;location;lat;lon;timestamp;pressure;altitude;pressure_sealevel;temperature;humidity
40994;BME280;26722;43.212;27.932;2023-02-03T00:00:53;55316.66;;;-146.72;66.23
40994;BME280;26722;43.212;27.932;2023-02-03T00:03:19;55335.66;;;-146.72;66.30
40994;BME280;26722;43.212;27.932;2023-02-03T00:05:44;55312.44;;;-146.72;66.10
40994;BME280;26722;43.212;27.932;2023-02-03T00:08:11;55333.56;;;-146.72;66.10
40994;BME280;26722;43.212;27.932;2023-02-03T00:10:38;55329.34;;;-146.72;66.19
40994;BME280;26722;43.212;27.932;2023-02-03T00:13:05;55318.78;;;-146.72;66.20
40994;BME280;26722;43.212;27.932;2023-02-03T00:15:31;55329.34;;;-146.72;66.47
40994;BME280;26722;43.212;27.932;2023-02-03T00:17:57;55331.44;;;-146.72;66.70
40994;BME280;26722;43.212;27.932;2023-02-03T00:20:22;55314.56;;;-146.72;66.87
40994;BME280;26722;43.212;27.932;2023-02-03T00:22:48;55304.00;;;-146.72;67.02
40994;BME280;26722;43.212;27.932;2023-02-03T00:25:13;55350.44;;;-146.72;67.18
40994;BME280;26722;43.212;27.932;2023-02-03T00:27:39;55342.00;;;-146.72;67.32
40994;BME280;26722;43.212;27.932;2023-02-03T00:30:05;55344.13;;;-146.72;67.38
40994;BME280;26722;43.212;27.932;2023-02-03T00:32:30;55323.00;;;-146.72;67.43
40994;BME280;26722;43.212;27.932;2023-02-03T00:34:56;55314.56;;;-146.72;67.56
40994;BME280;26722;43.212;27.932;2023-02-03T00:37:22;55320.88;;;-146.72;67.52
40994;BME280;26722;43.212;27.932;2023-02-03T00:39:48;55310.34;;;-146.72;67.70
40994;BME280;26722;43.212;27.932;2023-02-03T00:42:14;55318.78;;;-146.72;67.39
40994;BME280;26722;43.212;27.932;2023-02-03T00:44:39;55316.66;;;-146.72;67.59
40994;BME280;26722;43.212;27.932;2023-02-03T00:47:05;55327.22;;;-146.72;67.67
40994;BME280;26722;43.212;27.932;2023-02-03T00:49:30;55318.78;;;-146.72;67.64
40994;BME280;26722;43.212;27.932;2023-02-03T00:51:56;55327.22;;;-146.72;67.51
40994;BME280;26722;43.212;27.932;2023-02-03T00:54:21;55352.56;;;-146.72;67.44
40994;BME280;26722;43.212;27.932;2023-02-03T00:56:46;55337.78;;;-146.72;67.33
40994;BME280;26722;43.212;27.932;2023-02-03T00:59:12;55331.44;;;-146.72;67.52
40994;BME280;26722;43.212;27.932;2023-02-03T01:01:37;55339.91;;;-146.72;67.35
40994;BME280;26722;43.212;27.932;2023-02-03T01:04:03;55318.78;;;-146.72;67.33
40994;BME280;26722;43.212;27.932;2023-02-03T01:06:29;55335.66;;;-146.72;67.44
40994;BME280;26722;43.212;27.932;2023-02-03T01:08:54;55344.13;;;-146.72;67.42
40994;BME280;26722;43.212;27.932;2023-02-03T01:11:22;55335.66;;;-146.72;67.41
40994;BME280;26722;43.212;27.932;2023-02-03T01:13:48;55327.22;;;-146.72;67.24
40994;BME280;26722;43.212;27.932;2023-02-03T01:16:17;55316.66;;;-146.72;67.40
40994;BME280;26722;43.212;27.932;2023-02-03T01:18:43;55327.22;;;-146.72;67.59
40994;BME280;26722;43.212;27.932;2023-02-03T01:21:12;55310.34;;;-146.72;67.68
40994;BME280;26722;43.212;27.932;2023-02-03T01:23:38;55339.91;;;-146.72;67.67
40994;BME280;26722;43.212;27.932;2023-02-03T01:26:09;55346.22;;;-146.72;67.87
40994;BME280;26722;43.212;27.932;2023-02-03T01:28:36;55335.66;;;-146.72;68.03
40994;BME280;26722;43.212;27.932;2023-02-03T01:33:33;55335.66;;;-146.72;68.00
40994;BME280;26722;43.212;27.932;2023-02-03T01:35:59;55339.91;;;-146.72;68.28
40994;BME280;26722;43.212;27.932;2023-02-03T01:38:25;55339.91;;;-146.72;68.47
40994;BME280;26722;43.212;27.932;2023-02-03T01:40:50;55335.66;;;-146.72;68.65
40994;BME280;26722;43.212;27.932;2023-02-03T01:43:31;55337.78;;;-146.72;68.79
40994;BME280;26722;43.212;27.932;2023-02-03T01:45:58;55333.56;;;-146.72;68.78
40994;BME280;26722;43.212;27.932;2023-02-03T01:48:25;55339.91;;;-146.72;68.99
40994;BME280;26722;43.212;27.932;2023-02-03T01:50:50;55352.56;;;-146.72;68.88
40994;BME280;26722;43.212;27.932;2023-02-03T01:53:16;55339.91;;;-146.72;68.79
40994;BME280;26722;43.212;27.932;2023-02-03T01:55:46;55308.22;;;-146.72;68.50
40994;BME280;26722;43.212;27.932;2023-02-03T01:58:20;55339.91;;;-146.72;68.49
40994;BME280;26722;43.212;27.932;2023-02-03T02:00:50;55335.66;;;-146.72;68.53
40994;BME280;26722;43.212;27.932;2023-02-03T02:03:19;55342.00;;;-146.72;68.39
40994;BME280;26722;43.212;27.932;2023-02-03T02:05:53;55325.13;;;-146.72;68.49
40994;BME280;26722;43.212;27.932;2023-02-03T02:08:21;55339.91;;;-146.72;68.24
40994;BME280;26722;43.212;27.932;2023-02-03T02:10:47;55361.00;;;-146.72;68.27
40994;BME280;26722;43.212;27.932;2023-02-03T02:13:14;55327.22;;;-146.72;68.03
40994;BME280;26722;43.212;27.932;2023-02-03T02:16:08;55339.91;;;-146.72;68.08
40994;BME280;26722;43.212;27.932;2023-02-03T02:37:47;55323.00;;;-146.72;68.62
40994;BME280;26722;43.212;27.932;2023-02-03T02:43:07;55333.56;;;-146.72;68.14
40994;BME280;26722;43.212;27.932;2023-02-03T02:48:12;55352.56;;;-146.72;67.60
40994;BME280;26722;43.212;27.932;2023-02-03T02:50:45;55325.13;;;-146.72;67.61
40994;BME280;26722;43.212;27.932;2023-02-03T02:53:14;55323.00;;;-146.72;67.49
40994;BME280;26722;43.212;27.932;2023-02-03T02:55:42;55320.88;;;-146.72;67.14
40994;BME280;26722;43.212;27.932;2023-02-03T02:58:11;55323.00;;;-146.72;66.95
40994;BME280;26722;43.212;27.932;2023-02-03T03:00:39;55342.00;;;-146.72;66.94
40994;BME280;26722;43.212;27.932;2023-02-03T03:05:36;55316.66;;;-146.72;67.05
40994;BME280;26722;43.212;27.932;2023-02-03T03:08:03;55339.91;;;-146.72;67.28
40994;BME280;26722;43.212;27.932;2023-02-03T03:10:30;55333.56;;;-146.72;67.59
40994;BME280;26722;43.212;27.932;2023-02-03T03:13:03;55358.91;;;-146.72;67.80
40994;BME280;26722;43.212;27.932;2023-02-03T03:15:31;55344.13;;;-146.72;67.85
40994;BME280;26722;43.212;27.932;2023-02-03T03:20:31;55335.66;;;-146.72;68.24
40994;BME280;26722;43.212;27.932;2023-02-03T03:23:05;55323.00;;;-146.72;68.42
40994;BME280;26722;43.212;27.932;2023-02-03T03:25:38;55333.56;;;-146.72;68.52
40994;BME280;26722;43.212;27.932;2023-02-03T03:28:10;55354.66;;;-146.72;68.75
40994;BME280;26722;43.212;27.932;2023-02-03T03:30:38;55331.44;;;-146.72;68.97
40994;BME280;26722;43.212;27.932;2023-02-03T03:33:04;55358.91;;;-146.72;69.04
40994;BME280;26722;43.212;27.932;2023-02-03T03:35:36;55344.13;;;-146.72;69.08
40994;BME280;26722;43.212;27.932;2023-02-03T03:38:43;55333.56;;;-146.72;69.11
40994;BME280;26722;43.212;27.932;2023-02-03T03:41:17;55342.00;;;-146.72;68.69
40994;BME280;26722;43.212;27.932;2023-02-03T03:43:46;55335.66;;;-146.72;68.25
40994;BME280;26722;43.212;27.932;2023-02-03T03:46:16;55329.34;;;-146.72;67.69
40994;BME280;26722;43.212;27.932;2023-02-03T03:48:54;55350.44;;;-146.72;67.38
40994;BME280;26722;43.212;27.932;2023-02-03T03:51:29;55339.91;;;-146.72;67.23
40994;BME280;26722;43.212;27.932;2023-02-03T03:53:59;55331.44;;;-146.72;66.85
40994;BME280;26722;43.212;27.932;2023-02-03T03:56:32;55306.09;;;-146.72;66.88
40994;BME280;26722;43.212;27.932;2023-02-03T03:59:01;55327.22;;;-146.72;66.56
40994;BME280;26722;43.212;27.932;2023-02-03T04:01:28;55310.34;;;-146.72;66.75
40994;BME280;26722;43.212;27.932;2023-02-03T04:04:01;55314.56;;;-146.72;66.77
40994;BME280;26722;43.212;27.932;2023-02-03T04:06:27;55323.00;;;-146.72;67.15
40994;BME280;26722;43.212;27.932;2023-02-03T04:08:52;55335.66;;;-146.72;67.59
40994;BME280;26722;43.212;27.932;2023-02-03T04:11:18;55346.22;;;-146.72;68.21
40994;BME280;26722;43.212;27.932;2023-02-03T04:14:02;55352.56;;;-146.72;68.26
40994;BME280;26722;43.212;27.932;2023-02-03T04:16:28;55356.78;;;-146.72;68.55
40994;BME280;26722;43.212;27.932;2023-02-03T04:18:53;55356.78;;;-146.72;68.84
40994;BME280;26722;43.212;27.932;2023-02-03T04:21:19;55339.91;;;-146.72;68.67
40994;BME280;26722;43.212;27.932;2023-02-03T04:23:44;55344.13;;;-146.72;68.81
40994;BME280;26722;43.212;27.932;2023-02-03T04:26:10;55337.78;;;-146.72;68.95
40994;BME280;26722;43.212;27.932;2023-02-03T04:28:35;55348.34;;;-146.72;69.17
40994;BME280;26722;43.212;27.932;2023-02-03T04:31:01;55354.66;;;-146.72;69.46
40994;BME280;26722;43.212;27.932;2023-02-03T04:33:26;55331.44;;;-146.72;69.31
40994;BME280;26722;43.212;27.932;2023-02-03T04:35:52;55337.78;;;-146.72;69.42
40994;BME280;26722;43.212;27.932;2023-02-03T04:38:17;55346.22;;;-146.72;69.18
40994;BME280;26722;43.212;27.932;2023-02-03T04:40:42;55350.44;;;-146.72;68.91
40994;BME280;26722;43.212;27.932;2023-02-03T04:43:09;55335.66;;;-146.72;69.09
40994;BME280;26722;43.212;27.932;2023-02-03T04:45:35;55390.56;;;-146.72;69.19
40994;BME280;26722;43.212;27.932;2023-02-03T04:48:01;55329.34;;;-146.72;68.97
40994;BME280;26722;43.212;27.932;2023-02-03T04:50:29;55365.22;;;-146.72;68.79
40994;BME280;26722;43.212;27.932;2023-02-03T04:52:54;55369.44;;;-146.72;68.91
40994;BME280;26722;43.212;27.932;2023-02-03T04:55:20;55363.13;;;-146.72;69.07
40994;BME280;26722;43.212;27.932;2023-02-03T04:57:45;55352.56;;;-146.72;69.01
40994;BME280;26722;43.212;27.932;2023-02-03T05:00:11;55335.66;;;-146.72;69.25
40994;BME280;26722;43.212;27.932;2023-02-03T05:02:37;55339.91;;;-146.72;69.18
40994;BME280;26722;43.212;27.932;2023-02-03T05:05:02;55346.22;;;-146.72;69.04
40994;BME280;26722;43.212;27.932;2023-02-03T05:07:28;55348.34;;;-146.72;69.30
40994;BME280;26722;43.212;27.932;2023-02-03T05:09:53;55348.34;;;-146.72;69.16
40994;BME280;26722;43.212;27.932;2023-02-03T05:12:19;55348.34;;;-146.72;69.54
40994;BME280;26722;43.212;27.932;2023-02-03T05:14:44;55375.78;;;-146.72;69.56
40994;BME280;26722;43.212;27.932;2023-02-03T05:17:09;55356.78;;;-146.72;69.56
40994;BME280;26722;43.212;27.932;2023-02-03T05:19:35;55335.66;;;-146.72;69.50
40994;BME280;26722;43.212;27.932;2023-02-03T05:22:00;55358.91;;;-146.72;69.74
40994;BME280;26722;43.212;27.932;2023-02-03T05:24:26;55356.78;;;-146.72;69.86
40994;BME280;26722;43.212;27.932;2023-02-03T05:26:51;55356.78;;;-146.72;69.80
40994;BME280;26722;43.212;27.932;2023-02-03T05:29:17;55327.22;;;-146.72;69.72
40994;BME280;26722;43.212;27.932;2023-02-03T05:31:42;55356.78;;;-146.72;69.64
40994;BME280;26722;43.212;27.932;2023-02-03T05:34:07;55339.91;;;-146.72;69.66
40994;BME280;26722;43.212;27.932;2023-02-03T05:36:33;55318.78;;;-146.72;69.92
40994;BME280;26722;43.212;27.932;2023-02-03T05:38:58;55335.66;;;-146.72;69.66
40994;BME280;26722;43.212;27.932;2023-02-03T05:41:24;55348.34;;;-146.72;69.32
40994;BME280;26722;43.212;27.932;2023-02-03T05:44:08;55344.13;;;-146.72;69.04
40994;BME280;26722;43.212;27.932;2023-02-03T05:46:33;55356.78;;;-146.72;68.80
40994;BME280;26722;43.212;27.932;2023-02-03T05:48:58;55352.56;;;-146.72;68.43
40994;BME280;26722;43.212;27.932;2023-02-03T05:51:24;55352.56;;;-146.72;68.35
40994;BME280;26722;43.212;27.932;2023-02-03T05:53:50;55352.56;;;-146.72;68.11
40994;BME280;26722;43.212;27.932;2023-02-03T05:56:15;55382.13;;;-146.72;68.06
40994;BME280;26722;43.212;27.932;2023-02-03T05:58:41;55316.66;;;-146.72;68.38
40994;BME280;26722;43.212;27.932;2023-02-03T06:01:06;55354.66;;;-146.72;68.26
40994;BME280;26722;43.212;27.932;2023-02-03T06:03:32;55337.78;;;-146.72;68.01
40994;BME280;26722;43.212;27.932;2023-02-03T06:05:57;55327.22;;;-146.72;67.79
40994;BME280;26722;43.212;27.932;2023-02-03T06:08:23;55369.44;;;-146.72;67.89
40994;BME280;26722;43.212;27.932;2023-02-03T06:10:56;55335.66;;;-146.72;67.57
40994;BME280;26722;43.212;27.932;2023-02-03T06:13:22;55331.44;;;-146.72;67.47
40994;BME280;26722;43.212;27.932;2023-02-03T06:15:48;55329.34;;;-146.72;67.25
40994;BME280;26722;43.212;27.932;2023-02-03T06:18:14;55335.66;;;-146.72;67.38
40994;BME280;26722;43.212;27.932;2023-02-03T06:20:39;55339.91;;;-146.72;67.33
40994;BME280;26722;43.212;27.932;2023-02-03T06:23:05;55339.91;;;-146.72;67.41
40994;BME280;26722;43.212;27.932;2023-02-03T06:25:30;55308.22;;;-146.72;67.33
40994;BME280;26722;43.212;27.932;2023-02-03T06:27:57;55339.91;;;-146.72;67.10
40994;BME280;26722;43.212;27.932;2023-02-03T06:30:23;55348.34;;;-146.72;66.82
40994;BME280;26722;43.212;27.932;2023-02-03T06:32:49;55327.22;;;-146.72;66.66
40994;BME280;26722;43.212;27.932;2023-02-03T06:35:16;55325.13;;;-146.72;66.68
40994;BME280;26722;43.212;27.932;2023-02-03T06:37:41;55344.13;;;-146.72;66.40
40994;BME280;26722;43.212;27.932;2023-02-03T06:40:07;55331.44;;;-146.72;66.48
40994;BME280;26722;43.212;27.932;2023-02-03T06:42:33;55312.44;;;-146.72;66.28
40994;BME280;26722;43.212;27.932;2023-02-03T06:44:59;55331.44;;;-146.72;66.16
40994;BME280;26722;43.212;27.932;2023-02-03T06:47:24;55344.13;;;-146.72;66.21
40994;BME280;26722;43.212;27.932;2023-02-03T06:49:50;55318.78;;;-146.72;65.62
40994;BME280;26722;43.212;27.932;2023-02-03T06:52:16;55306.09;;;-146.72;65.02
40994;BME280;26722;43.212;27.932;2023-02-03T06:54:42;55312.44;;;-146.72;65.21
40994;BME280;26722;43.212;27.932;2023-02-03T06:57:07;55323.00;;;-146.72;65.08
40994;BME280;26722;43.212;27.932;2023-02-03T06:59:33;55297.66;;;-146.72;64.68
40994;BME280;26722;43.212;27.932;2023-02-03T07:01:58;55350.44;;;-146.72;64.43
40994;BME280;26722;43.212;27.932;2023-02-03T07:04:24;55306.09;;;-146.72;64.38
40994;BME280;26722;43.212;27.932;2023-02-03T07:06:52;55308.22;;;-146.72;64.27
40994;BME280;26722;43.212;27.932;2023-02-03T07:09:18;55308.22;;;-146.72;64.22
40994;BME280;26722;43.212;27.932;2023-02-03T07:11:43;55297.66;;;-146.72;64.48
40994;BME280;26722;43.212;27.932;2023-02-03T07:14:09;55314.56;;;-146.72;64.45
40994;BME280;26722;43.212;27.932;2023-02-03T07:16:34;55301.88;;;-146.72;64.09
40994;BME280;26722;43.212;27.932;2023-02-03T07:19:02;55312.44;;;-146.72;63.86
40994;BME280;26722;43.212;27.932;2023-02-03T07:21:28;55314.56;;;-146.72;63.56
40994;BME280;26722;43.212;27.932;2023-02-03T07:23:53;55289.22;;;-146.72;63.58
40994;BME280;26722;43.212;27.932;2023-02-03T07:26:19;55285.00;;;-146.72;63.40
40994;BME280;26722;43.212;27.932;2023-02-03T07:28:47;55276.56;;;-146.72;63.14
40994;BME280;26722;43.212;27.932;2023-02-03T07:31:13;55287.09;;;-146.72;63.05
40994;BME280;26722;43.212;27.932;2023-02-03T07:33:38;55331.44;;;-146.72;63.06
40994;BME280;26722;43.212;27.932;2023-02-03T07:36:05;55301.88;;;-146.72;63.05
40994;BME280;26722;43.212;27.932;2023-02-03T07:38:31;55304.00;;;-146.72;62.82
40994;BME280;26722;43.212;27.932;2023-02-03T07:40:56;55293.44;;;-146.72;62.37
40994;BME280;26722;43.212;27.932;2023-02-03T07:43:22;55287.09;;;-146.72;62.65
40994;BME280;26722;43.212;27.932;2023-02-03T07:45:48;55266.00;;;-146.72;62.51
40994;BME280;26722;43.212;27.932;2023-02-03T07:48:14;55280.78;;;-146.72;62.16
40994;BME280;26722;43.212;27.932;2023-02-03T07:50:39;55266.00;;;-146.72;61.60
40994;BME280;26722;43.212;27.932;2023-02-03T07:53:06;55276.56;;;-146.72;61.66
40994;BME280;26722;43.212;27.932;2023-02-03T07:55:36;55285.00;;;-146.72;61.18
40994;BME280;26722;43.212;27.932;2023-02-03T07:58:01;55276.56;;;-146.72;60.56
40994;BME280;26722;43.212;27.932;2023-02-03T08:00:27;55259.66;;;-146.72;60.28
40994;BME280;26722;43.212;27.932;2023-02-03T08:02:52;55259.66;;;-146.72;59.96
40994;BME280;26722;43.212;27.932;2023-02-03T08:05:18;55291.34;;;-146.72;60.22
40994;BME280;26722;43.212;27.932;2023-02-03T08:07:44;55276.56;;;-146.72;60.27
40994;BME280;26722;43.212;27.932;2023-02-03T08:10:11;55266.00;;;-146.72;60.09
40994;BME280;26722;43.212;27.932;2023-02-03T08:12:37;55247.00;;;-146.72;60.22
40994;BME280;26722;43.212;27.932;2023-02-03T08:15:03;55242.78;;;-146.72;59.75
40994;BME280;26722;43.212;27.932;2023-02-03T08:17:29;55266.00;;;-146.72;59.37
40994;BME280;26722;43.212;27.932;2023-02-03T08:19:55;55268.09;;;-146.72;59.21
40994;BME280;26722;43.212;27.932;2023-02-03T08:22:20;55272.31;;;-146.72;59.43
40994;BME280;26722;43.212;27.932;2023-02-03T08:24:46;55276.56;;;-146.72;59.76
40994;BME280;26722;43.212;27.932;2023-02-03T08:27:13;55242.78;;;-146.72;59.50
40994;BME280;26722;43.212;27.932;2023-02-03T08:29:39;55242.78;;;-146.72;58.84
40994;BME280;26722;43.212;27.932;2023-02-03T08:32:04;55255.44;;;-146.72;58.35
40994;BME280;26722;43.212;27.932;2023-02-03T08:34:30;55247.00;;;-146.72;57.92
40994;BME280;26722;43.212;27.932;2023-02-03T08:36:58;55225.88;;;-146.72;57.71
40994;BME280;26722;43.212;27.932;2023-02-03T08:39:23;55251.22;;;-146.72;58.12
40994;BME280;26722;43.212;27.932;2023-02-03T08:41:49;55244.88;;;-146.72;58.07
40994;BME280;26722;43.212;27.932;2023-02-03T08:44:14;55255.44;;;-146.72;58.04
40994;BME280;26722;43.212;27.932;2023-02-03T08:46:40;55249.09;;;-146.72;58.19
40994;BME280;26722;43.212;27.932;2023-02-03T08:49:09;55240.66;;;-146.72;58.03
40994;BME280;26722;43.212;27.932;2023-02-03T08:51:34;55247.00;;;-146.72;58.07
40994;BME280;26722;43.212;27.932;2023-02-03T08:54:00;55238.53;;;-146.72;57.76
40994;BME280;26722;43.212;27.932;2023-02-03T08:56:25;55215.31;;;-146.72;56.97
40994;BME280;26722;43.212;27.932;2023-02-03T08:58:52;55225.88;;;-146.72;56.34
40994;BME280;26722;43.212;27.932;2023-02-03T09:01:17;55238.53;;;-146.72;55.72
40994;BME280;26722;43.212;27.932;2023-02-03T09:03:43;55219.53;;;-146.72;55.79
40994;BME280;26722;43.212;27.932;2023-02-03T09:06:09;55230.09;;;-146.72;55.90
40994;BME280;26722;43.212;27.932;2023-02-03T09:08:37;55230.09;;;-146.72;55.41
40994;BME280;26722;43.212;27.932;2023-02-03T09:11:10;55234.31;;;-146.72;55.39
40994;BME280;26722;43.212;27.932;2023-02-03T09:13:36;55225.88;;;-146.72;55.22
40994;BME280;26722;43.212;27.932;2023-02-03T09:16:02;55204.75;;;-146.72;55.13
40994;BME280;26722;43.212;27.932;2023-02-03T09:18:27;55228.00;;;-146.72;54.87
40994;BME280;26722;43.212;27.932;2023-02-03T09:21:06;55238.53;;;-146.72;55.43
40994;BME280;26722;43.212;27.932;2023-02-03T09:23:31;55206.88;;;-146.72;55.27
40994;BME280;26722;43.212;27.932;2023-02-03T09:26:02;55234.31;;;-146.72;54.48
40994;BME280;26722;43.212;27.932;2023-02-03T09:28:27;55234.31;;;-146.72;54.65
40994;BME280;26722;43.212;27.932;2023-02-03T09:30:53;55221.66;;;-146.72;54.45
40994;BME280;26722;43.212;27.932;2023-02-03T09:33:18;55225.88;;;-146.72;53.87
40994;BME280;26722;43.212;27.932;2023-02-03T09:35:54;55217.44;;;-146.72;53.05
40994;BME280;26722;43.212;27.932;2023-02-03T09:38:20;55230.09;;;-146.72;53.19
40994;BME280;26722;43.212;27.932;2023-02-03T09:40:50;55213.22;;;-146.72;52.62
40994;BME280;26722;43.212;27.932;2023-02-03T09:43:34;55204.75;;;-146.72;52.59
40994;BME280;26722;43.212;27.932;2023-02-03T09:46:17;55211.09;;;-146.72;52.13
40994;BME280;26722;43.212;27.932;2023-02-03T09:48:47;55232.22;;;-146.72;52.22
40994;BME280;26722;43.212;27.932;2023-02-03T09:54:44;55192.09;;;-146.72;52.42
40994;BME280;26722;43.212;27.932;2023-02-03T09:57:26;55206.88;;;-146.72;51.82
40994;BME280;26722;43.212;27.932;2023-02-03T09:59:53;55215.31;;;-146.72;51.05
40994;BME280;26722;43.212;27.932;2023-02-03T10:04:58;55211.09;;;-146.72;49.19
40994;BME280;26722;43.212;27.932;2023-02-03T10:09:59;55196.31;;;-146.72;46.49
40994;BME280;26722;43.212;27.932;2023-02-03T10:12:53;55219.53;;;-146.72;47.65
40994;BME280;26722;43.212;27.932;2023-02-03T10:17:59;55223.78;;;-146.72;47.95
40994;BME280;26722;43.212;27.932;2023-02-03T10:20:50;55221.66;;;-146.72;48.10
40994;BME280;26722;43.212;27.932;2023-02-03T10:23:29;55238.53;;;-146.72;47.85
40994;BME280;26722;43.212;27.932;2023-02-03T10:25:58;55232.22;;;-146.72;47.57
40994;BME280;26722;43.212;27.932;2023-02-03T10:28:30;55209.00;;;-146.72;47.76
40994;BME280;26722;43.212;27.932;2023-02-03T10:30:57;55204.75;;;-146.72;46.69
40994;BME280;26722;43.212;27.932;2023-02-03T10:33:26;55221.66;;;-146.72;47.06
40994;BME280;26722;43.212;27.932;2023-02-03T10:40:56;55209.00;;;-146.72;47.22
40994;BME280;26722;43.212;27.932;2023-02-03T10:43:21;55232.22;;;-146.72;47.87
40994;BME280;26722;43.212;27.932;2023-02-03T10:46:06;55225.88;;;-146.72;47.56
40994;BME280;26722;43.212;27.932;2023-02-03T10:48:31;55213.22;;;-146.72;47.90
40994;BME280;26722;43.212;27.932;2023-02-03T10:50:57;55228.00;;;-146.72;48.73
40994;BME280;26722;43.212;27.932;2023-02-03T10:53:32;55225.88;;;-146.72;49.03
40994;BME280;26722;43.212;27.932;2023-02-03T10:58:55;55215.31;;;-146.72;49.14
40994;BME280;26722;43.212;27.932;2023-02-03T11:01:24;55209.00;;;-146.72;48.90
40994;BME280;26722;43.212;27.932;2023-02-03T11:03:58;55217.44;;;-146.72;47.89
40994;BME280;26722;43.212;27.932;2023-02-03T11:06:25;55200.53;;;-146.72;47.38
40994;BME280;26722;43.212;27.932;2023-02-03T11:08:51;55230.09;;;-146.72;46.18
40994;BME280;26722;43.212;27.932;2023-02-03T11:16:27;55221.66;;;-146.72;46.00
40994;BME280;26722;43.212;27.932;2023-02-03T11:19:01;55209.00;;;-146.72;47.01
40994;BME280;26722;43.212;27.932;2023-02-03T11:21:31;55202.66;;;-146.72;47.02
40994;BME280;26722;43.212;27.932;2023-02-03T11:24:21;55213.22;;;-146.72;46.91
40994;BME280;26722;43.212;27.932;2023-02-03T11:26:52;55202.66;;;-146.72;46.99
40994;BME280;26722;43.212;27.932;2023-02-03T11:29:27;55221.66;;;-146.72;46.63
40994;BME280;26722;43.212;27.932;2023-02-03T11:31:55;55219.53;;;-146.72;46.64
40994;BME280;26722;43.212;27.932;2023-02-03T11:37:31;55202.66;;;-146.72;45.88
40994;BME280;26722;43.212;27.932;2023-02-03T11:42:35;55211.09;;;-146.72;44.31
40994;BME280;26722;43.212;27.932;2023-02-03T11:45:49;55198.44;;;-146.72;44.04
40994;BME280;26722;43.212;27.932;2023-02-03T11:53:46;55209.00;;;-146.72;44.68
40994;BME280;26722;43.212;27.932;2023-02-03T11:59:18;55198.44;;;-146.72;42.59
40994;BME280;26722;43.212;27.932;2023-02-03T12:08:19;55158.31;;;-146.72;40.92
40994;BME280;26722;43.212;27.932;2023-02-03T12:18:27;55173.09;;;-146.72;40.59
40994;BME280;26722;43.212;27.932;2023-02-03T12:26:49;55192.09;;;-146.72;42.18
40994;BME280;26722;43.212;27.932;2023-02-03T12:29:29;55196.31;;;-146.72;41.60
40994;BME280;26722;43.212;27.932;2023-02-03T12:35:14;55179.44;;;-146.72;41.72
40994;BME280;26722;43.212;27.932;2023-02-03T12:40:45;55196.31;;;-146.72;41.50
40994;BME280;26722;43.212;27.932;2023-02-03T12:46:14;55183.66;;;-146.72;41.51
40994;BME280;26722;43.212;27.932;2023-02-03T12:48:49;55200.53;;;-146.72;42.06
40994;BME280;26722;43.212;27.932;2023-02-03T12:51:27;55217.44;;;-146.72;42.47
40994;BME280;26722;43.212;27.932;2023-02-03T12:54:00;55225.88;;;-146.72;42.82
40994;BME280;26722;43.212;27.932;2023-02-03T12:56:39;55194.22;;;-146.72;42.99
40994;BME280;26722;43.212;27.932;2023-02-03T12:59:21;55202.66;;;-146.72;43.25
40994;BME280;26722;43.212;27.932;2023-02-03T13:01:58;55213.22;;;-146.72;43.21
40994;BME280;26722;43.212;27.932;2023-02-03T13:04:41;55213.22;;;-146.72;44.03
40994;BME280;26722;43.212;27.932;2023-02-03T13:07:26;55209.00;;;-146.72;44.40
40994;BME280;26722;43.212;27.932;2023-02-03T13:10:02;55202.66;;;-146.72;44.47
40994;BME280;26722;43.212;27.932;2023-02-03T13:12:34;55223.78;;;-146.72;44.73
40994;BME280;26722;43.212;27.932;2023-02-03T13:17:52;55247.00;;;-146.72;45.67
40994;BME280;26722;43.212;27.932;2023-02-03T13:20:22;55204.75;;;-146.72;45.95
40994;BME280;26722;43.212;27.932;2023-02-03T13:22:49;55213.22;;;-146.72;45.75
40994;BME280;26722;43.212;27.932;2023-02-03T13:25:17;55202.66;;;-146.72;45.92
40994;BME280;26722;43.212;27.932;2023-02-03T13:30:39;55206.88;;;-146.72;46.20
40994;BME280;26722;43.212;27.932;2023-02-03T13:39:21;55209.00;;;-146.72;45.59
40994;BME280;26722;43.212;27.932;2023-02-03T13:42:12;55196.31;;;-146.72;45.32
40994;BME280;26722;43.212;27.932;2023-02-03T13:44:43;55206.88;;;-146.72;45.27
40994;BME280;26722;43.212;27.932;2023-02-03T13:47:17;55173.09;;;-146.72;44.83
40994;BME280;26722;43.212;27.932;2023-02-03T13:49:47;55200.53;;;-146.72;44.96
40994;BME280;26722;43.212;27.932;2023-02-03T13:52:25;55185.75;;;-146.72;44.77
40994;BME280;26722;43.212;27.932;2023-02-03T13:54:51;55200.53;;;-146.72;44.95
40994;BME280;26722;43.212;27.932;2023-02-03T13:57:21;55190.00;;;-146.72;44.67
40994;BME280;26722;43.212;27.932;2023-02-03T13:59:48;55187.88;;;-146.72;44.69
40994;BME280;26722;43.212;27.932;2023-02-03T14:07:34;55219.53;;;-146.72;44.81
40994;BME280;26722;43.212;27.932;2023-02-03T14:18:04;55194.22;;;-146.72;44.77
40994;BME280;26722;43.212;27.932;2023-02-03T14:20:37;55211.09;;;-146.72;45.22
40994;BME280;26722;43.212;27.932;2023-02-03T14:23:08;55213.22;;;-146.72;45.16
40994;BME280;26722;43.212;27.932;2023-02-03T14:25:42;55230.09;;;-146.72;45.47
40994;BME280;26722;43.212;27.932;2023-02-03T14:31:17;55209.00;;;-146.72;46.69
40994;BME280;26722;43.212;27.932;2023-02-03T14:42:10;55247.00;;;-146.72;55.24
40994;BME280;26722;43.212;27.932;2023-02-03T14:45:21;55261.78;;;-146.72;57.89
40994;BME280;26722;43.212;27.932;2023-02-03T14:59:04;55259.66;;;-146.72;61.22
40994;BME280;26722;43.212;27.932;2023-02-03T15:06:42;55287.09;;;-146.72;61.86
40994;BME280;26722;43.212;27.932;2023-02-03T15:09:38;55247.00;;;-146.72;61.62
40994;BME280;26722;43.212;27.932;2023-02-03T15:12:24;55247.00;;;-146.72;62.52